PWSweather.com
Personal Weather Stations
Station Observations
INORDPAS37
Bondues, BonduesFR 59910

BonduesBonduesFR 59910

Lat: 50.7, Lon: 3.09

Elevation: 102

Station Type: Netatmo

http://bondues.meteoamikuze.com

High Low Average
Temperature 41.5°F5.3°C 35.1°F1.7°C 37.8°F3.2°C
Dew Point 32.0°F0.0°C 24.6°F-4.1°C 27.6°F-2.4°C
Winds 8.1 mph 13.0 kmh 2.5 mph 4.0 kmh 5.0 mph NE8.0 kmh NE
Wind Gusts 21.0 mph33.8 kmh 6.9 mph11.1 kmh 12.0 mph19.3 kmh
Humidity 74% 71% 72%
Pressure 30.26 in1024.7 mb 30.04 in1017.3 mb -
Precipitation 0.00 in0.0 mm - -
Hour Temp Dew Point Humidity Winds Wind Gusts Pressure Precip Precip Rate Daily Precip Total
12:02 AM 41.5°F5.3°C 32.0°F0.0°C 74% 3.8 mph NNE6.1 kmh NNE 7.4 mph11.9 kmh 30.04 in1017.3 mb 0.00 in0.0 mm 0.00 in0.0 mm 0.00 in0.0 mm
12:21 AM 41.5°F5.3°C 32.0°F0.0°C 74% 3.1 mph NNE5.0 kmh NNE 8.1 mph13.0 kmh 30.05 in1017.6 mb 0.00 in0.0 mm 0.00 in0.0 mm 0.00 in0.0 mm
12:42 AM 41.4°F5.2°C 31.8°F-0.1°C 74% 3.8 mph NNE6.1 kmh NNE 9.4 mph15.1 kmh 30.04 in1017.3 mb 0.00 in0.0 mm 0.00 in0.0 mm 0.00 in0.0 mm
01:02 AM 41.2°F5.1°C 31.6°F-0.2°C 74% 4.3 mph NE6.9 kmh NE 8.7 mph14.0 kmh 30.05 in1017.6 mb 0.00 in0.0 mm 0.00 in0.0 mm 0.00 in0.0 mm
01:22 AM 41.0°F5.0°C 31.5°F-0.3°C 74% 4.3 mph NE6.9 kmh NE 10.5 mph16.9 kmh 30.05 in1017.6 mb 0.00 in0.0 mm 0.00 in0.0 mm 0.00 in0.0 mm
01:42 AM 40.8°F4.9°C 31.3°F-0.4°C 74% 3.8 mph NNE6.1 kmh NNE 8.1 mph13.0 kmh 30.06 in1017.9 mb 0.00 in0.0 mm 0.00 in0.0 mm 0.00 in0.0 mm
02:03 AM 40.6°F4.8°C 31.1°F-0.5°C 74% 4.9 mph NE7.9 kmh NE 11.2 mph18.0 kmh 30.07 in1018.3 mb 0.00 in0.0 mm 0.00 in0.0 mm 0.00 in0.0 mm
02:23 AM 40.3°F4.6°C 30.7°F-0.7°C 74% 5.6 mph NNE9.0 kmh NNE 13.6 mph21.9 kmh 30.07 in1018.3 mb 0.00 in0.0 mm 0.00 in0.0 mm 0.00 in0.0 mm
02:43 AM 39.7°F4.3°C 30.2°F-1.0°C 74% 4.3 mph NNE6.9 kmh NNE 9.4 mph15.1 kmh 30.09 in1019.0 mb 0.00 in0.0 mm 0.00 in0.0 mm 0.00 in0.0 mm
03:04 AM 39.4°F4.1°C 29.8°F-1.2°C 74% 6.9 mph NE11.1 kmh NE 11.9 mph19.2 kmh 30.09 in1019.0 mb 0.00 in0.0 mm 0.00 in0.0 mm 0.00 in0.0 mm
03:24 AM 39.2°F4.0°C 29.7°F-1.3°C 74% 3.8 mph NE6.1 kmh NE 9.8 mph15.8 kmh 30.09 in1019.0 mb 0.00 in0.0 mm 0.00 in0.0 mm 0.00 in0.0 mm
03:44 AM 39.0°F3.9°C 29.1°F-1.6°C 73% 3.1 mph NE5.0 kmh NE 6.9 mph11.1 kmh 30.10 in1019.3 mb 0.00 in0.0 mm 0.00 in0.0 mm 0.00 in0.0 mm
04:04 AM 38.8°F3.8°C 28.9°F-1.7°C 73% 2.5 mph NNE4.0 kmh NNE 8.7 mph14.0 kmh 30.10 in1019.3 mb 0.00 in0.0 mm 0.00 in0.0 mm 0.00 in0.0 mm
04:25 AM 38.5°F3.6°C 28.6°F-1.9°C 73% 4.3 mph NE6.9 kmh NE 11.2 mph18.0 kmh 30.10 in1019.3 mb 0.00 in0.0 mm 0.00 in0.0 mm 0.00 in0.0 mm
04:49 AM 38.3°F3.5°C 28.4°F-2.0°C 73% 3.1 mph NE5.0 kmh NE 9.4 mph15.1 kmh 30.11 in1019.6 mb 0.00 in0.0 mm 0.00 in0.0 mm 0.00 in0.0 mm
05:08 AM 38.3°F3.5°C 28.4°F-2.0°C 73% 3.8 mph NE6.1 kmh NE 7.4 mph11.9 kmh 30.11 in1019.6 mb 0.00 in0.0 mm 0.00 in0.0 mm 0.00 in0.0 mm
05:29 AM 38.3°F3.5°C 28.4°F-2.0°C 73% 4.3 mph NE6.9 kmh NE 10.5 mph16.9 kmh 30.11 in1019.6 mb 0.00 in0.0 mm 0.00 in0.0 mm 0.00 in0.0 mm
05:55 AM 38.1°F3.4°C 28.2°F-2.1°C 73% 4.3 mph NNE6.9 kmh NNE 12.5 mph20.1 kmh 30.11 in1019.6 mb 0.00 in0.0 mm 0.00 in0.0 mm 0.00 in0.0 mm
06:15 AM 37.9°F3.3°C 28.0°F-2.2°C 73% 4.9 mph NE7.9 kmh NE 13.0 mph20.9 kmh 30.12 in1020.0 mb 0.00 in0.0 mm 0.00 in0.0 mm 0.00 in0.0 mm
06:35 AM 37.9°F3.3°C 28.0°F-2.2°C 73% 4.3 mph NE6.9 kmh NE 9.8 mph15.8 kmh 30.12 in1020.0 mb 0.00 in0.0 mm 0.00 in0.0 mm 0.00 in0.0 mm
06:55 AM 37.8°F3.2°C 27.9°F-2.3°C 73% 4.9 mph NE7.9 kmh NE 13.6 mph21.9 kmh 30.13 in1020.3 mb 0.00 in0.0 mm 0.00 in0.0 mm 0.00 in0.0 mm
07:15 AM 37.8°F3.2°C 27.9°F-2.3°C 73% 6.9 mph NE11.1 kmh NE 16.8 mph27.0 kmh 30.14 in1020.7 mb 0.00 in0.0 mm 0.00 in0.0 mm 0.00 in0.0 mm
07:35 AM 37.8°F3.2°C 27.9°F-2.3°C 73% 3.8 mph NE6.1 kmh NE 11.2 mph18.0 kmh 30.15 in1021.0 mb 0.00 in0.0 mm 0.00 in0.0 mm 0.00 in0.0 mm
07:55 AM 37.9°F3.3°C 28.0°F-2.2°C 73% 4.9 mph NE7.9 kmh NE 10.5 mph16.9 kmh 30.16 in1021.3 mb 0.00 in0.0 mm 0.00 in0.0 mm 0.00 in0.0 mm
08:01 AM 37.9°F3.3°C 28.0°F-2.2°C 73% 4.9 mph NE7.9 kmh NE 13.6 mph21.9 kmh 30.17 in1021.7 mb 0.00 in0.0 mm 0.00 in0.0 mm 0.00 in0.0 mm
08:29 AM 38.1°F3.4°C 28.2°F-2.1°C 73% 6.9 mph NE11.1 kmh NE 21.0 mph33.8 kmh 30.19 in1022.4 mb 0.00 in0.0 mm 0.00 in0.0 mm 0.00 in0.0 mm
08:55 AM 38.3°F3.5°C 28.4°F-2.0°C 73% 5.6 mph NE9.0 kmh NE 14.3 mph23.0 kmh 30.19 in1022.4 mb 0.00 in0.0 mm 0.00 in0.0 mm 0.00 in0.0 mm
09:15 AM 38.3°F3.5°C 28.4°F-2.0°C 73% 4.9 mph NE7.9 kmh NE 13.6 mph21.9 kmh 30.20 in1022.7 mb 0.00 in0.0 mm 0.00 in0.0 mm 0.00 in0.0 mm
09:35 AM 38.3°F3.5°C 28.4°F-2.0°C 73% 4.3 mph NE6.9 kmh NE 11.2 mph18.0 kmh 30.21 in1023.0 mb 0.00 in0.0 mm 0.00 in0.0 mm 0.00 in0.0 mm
09:55 AM 38.3°F3.5°C 28.4°F-2.0°C 73% 5.6 mph NE9.0 kmh NE 15.0 mph24.1 kmh 30.22 in1023.4 mb 0.00 in0.0 mm 0.00 in0.0 mm 0.00 in0.0 mm
10:15 AM 38.1°F3.4°C 28.2°F-2.1°C 73% 5.6 mph NNE9.0 kmh NNE 11.9 mph19.2 kmh 30.22 in1023.4 mb 0.00 in0.0 mm 0.00 in0.0 mm 0.00 in0.0 mm
10:35 AM 38.1°F3.4°C 28.2°F-2.1°C 73% 4.9 mph NE7.9 kmh NE 13.0 mph20.9 kmh 30.23 in1023.7 mb 0.00 in0.0 mm 0.00 in0.0 mm 0.00 in0.0 mm
10:41 AM 37.9°F3.3°C 28.0°F-2.2°C 73% 8.1 mph NE13.0 kmh NE 15.4 mph24.8 kmh 30.23 in1023.7 mb 0.00 in0.0 mm 0.00 in0.0 mm 0.00 in0.0 mm
11:06 AM 37.9°F3.3°C 28.0°F-2.2°C 73% 4.3 mph NE6.9 kmh NE 13.6 mph21.9 kmh 30.24 in1024.0 mb 0.00 in0.0 mm 0.00 in0.0 mm 0.00 in0.0 mm
11:25 AM 37.9°F3.3°C 28.0°F-2.2°C 73% 6.9 mph NE11.1 kmh NE 18.1 mph29.1 kmh 30.24 in1024.0 mb 0.00 in0.0 mm 0.00 in0.0 mm 0.00 in0.0 mm
11:46 AM 38.1°F3.4°C 27.9°F-2.3°C 72% 4.3 mph NE6.9 kmh NE 10.5 mph16.9 kmh 30.24 in1024.0 mb 0.00 in0.0 mm 0.00 in0.0 mm 0.00 in0.0 mm
12:06 PM 38.1°F3.4°C 27.9°F-2.3°C 72% 8.1 mph NE13.0 kmh NE 18.1 mph29.1 kmh 30.23 in1023.7 mb 0.00 in0.0 mm 0.00 in0.0 mm 0.00 in0.0 mm
12:26 PM 38.1°F3.4°C 27.9°F-2.3°C 72% 6.9 mph NE11.1 kmh NE 16.1 mph25.9 kmh 30.22 in1023.4 mb 0.00 in0.0 mm 0.00 in0.0 mm 0.00 in0.0 mm
12:46 PM 38.3°F3.5°C 28.0°F-2.2°C 72% 5.6 mph NE9.0 kmh NE 14.3 mph23.0 kmh 30.22 in1023.4 mb 0.00 in0.0 mm 0.00 in0.0 mm 0.00 in0.0 mm
01:02 PM 38.3°F3.5°C 28.0°F-2.2°C 72% 5.6 mph NE9.0 kmh NE 18.1 mph29.1 kmh 30.23 in1023.7 mb 0.00 in0.0 mm 0.00 in0.0 mm 0.00 in0.0 mm
01:23 PM 38.1°F3.4°C 27.9°F-2.3°C 72% 5.6 mph NE9.0 kmh NE 13.6 mph21.9 kmh 30.22 in1023.4 mb 0.00 in0.0 mm 0.00 in0.0 mm 0.00 in0.0 mm
01:43 PM 37.8°F3.2°C 27.5°F-2.5°C 72% 7.4 mph NE11.9 kmh NE 18.1 mph29.1 kmh 30.21 in1023.0 mb 0.00 in0.0 mm 0.00 in0.0 mm 0.00 in0.0 mm
02:03 PM 37.8°F3.2°C 27.5°F-2.5°C 72% 4.9 mph NNE7.9 kmh NNE 9.8 mph15.8 kmh 30.21 in1023.0 mb 0.00 in0.0 mm 0.00 in0.0 mm 0.00 in0.0 mm
02:24 PM 37.6°F3.1°C 27.0°F-2.8°C 71% 5.6 mph NE9.0 kmh NE 11.9 mph19.2 kmh 30.21 in1023.0 mb 0.00 in0.0 mm 0.00 in0.0 mm 0.00 in0.0 mm
02:43 PM 37.6°F3.1°C 27.0°F-2.8°C 71% 5.6 mph NE9.0 kmh NE 14.3 mph23.0 kmh 30.21 in1023.0 mb 0.00 in0.0 mm 0.00 in0.0 mm 0.00 in0.0 mm
03:04 PM 37.4°F3.0°C 26.8°F-2.9°C 71% 5.6 mph NE9.0 kmh NE 12.5 mph20.1 kmh 30.21 in1023.0 mb 0.00 in0.0 mm 0.00 in0.0 mm 0.00 in0.0 mm
03:24 PM 37.4°F3.0°C 26.8°F-2.9°C 71% 5.6 mph NE9.0 kmh NE 14.3 mph23.0 kmh 30.21 in1023.0 mb 0.00 in0.0 mm 0.00 in0.0 mm 0.00 in0.0 mm
03:48 PM 37.2°F2.9°C 26.6°F-3.0°C 71% 4.3 mph NNE6.9 kmh NNE 10.5 mph16.9 kmh 30.21 in1023.0 mb 0.00 in0.0 mm 0.00 in0.0 mm 0.00 in0.0 mm
04:04 PM 37.2°F2.9°C 26.6°F-3.0°C 71% 4.3 mph NE6.9 kmh NE 11.2 mph18.0 kmh 30.22 in1023.4 mb 0.00 in0.0 mm 0.00 in0.0 mm 0.00 in0.0 mm
04:23 PM 37.4°F3.0°C 26.8°F-2.9°C 71% 3.8 mph NE6.1 kmh NE 9.4 mph15.1 kmh 30.23 in1023.7 mb 0.00 in0.0 mm 0.00 in0.0 mm 0.00 in0.0 mm
04:44 PM 37.4°F3.0°C 26.8°F-2.9°C 71% 4.3 mph NE6.9 kmh NE 13.0 mph20.9 kmh 30.23 in1023.7 mb 0.00 in0.0 mm 0.00 in0.0 mm 0.00 in0.0 mm
05:04 PM 37.2°F2.9°C 26.6°F-3.0°C 71% 4.9 mph NE7.9 kmh NE 13.0 mph20.9 kmh 30.23 in1023.7 mb 0.00 in0.0 mm 0.00 in0.0 mm 0.00 in0.0 mm
05:24 PM 37.2°F2.9°C 26.6°F-3.0°C 71% 4.3 mph NE6.9 kmh NE 11.9 mph19.2 kmh 30.23 in1023.7 mb 0.00 in0.0 mm 0.00 in0.0 mm 0.00 in0.0 mm
05:44 PM 37.0°F2.8°C 26.4°F-3.1°C 71% 4.9 mph NE7.9 kmh NE 13.0 mph20.9 kmh 30.23 in1023.7 mb 0.00 in0.0 mm 0.00 in0.0 mm 0.00 in0.0 mm
06:02 PM 37.0°F2.8°C 26.4°F-3.1°C 71% 4.3 mph NE6.9 kmh NE 12.5 mph20.1 kmh 30.24 in1024.0 mb 0.00 in0.0 mm 0.00 in0.0 mm 0.00 in0.0 mm
06:28 PM 36.9°F2.7°C 26.4°F-3.1°C 71% 4.9 mph NE7.9 kmh NE 11.9 mph19.2 kmh 30.23 in1023.7 mb 0.00 in0.0 mm 0.00 in0.0 mm 0.00 in0.0 mm
06:48 PM 36.5°F2.5°C 26.1°F-3.3°C 71% 4.3 mph NE6.9 kmh NE 13.0 mph20.9 kmh 30.23 in1023.7 mb 0.00 in0.0 mm 0.00 in0.0 mm 0.00 in0.0 mm
07:02 PM 36.1°F2.3°C 25.7°F-3.5°C 71% 6.9 mph NE11.1 kmh NE 15.0 mph24.1 kmh 30.24 in1024.0 mb 0.00 in0.0 mm 0.00 in0.0 mm 0.00 in0.0 mm
07:23 PM 36.0°F2.2°C 25.5°F-3.6°C 71% 4.9 mph NE7.9 kmh NE 13.0 mph20.9 kmh 30.24 in1024.0 mb 0.00 in0.0 mm 0.00 in0.0 mm 0.00 in0.0 mm
07:43 PM 35.6°F2.0°C 25.2°F-3.8°C 71% 4.3 mph NE6.9 kmh NE 10.5 mph16.9 kmh 30.25 in1024.4 mb 0.00 in0.0 mm 0.00 in0.0 mm 0.00 in0.0 mm
08:03 PM 35.4°F1.9°C 25.0°F-3.9°C 71% 4.9 mph NE7.9 kmh NE 11.2 mph18.0 kmh 30.25 in1024.4 mb 0.00 in0.0 mm 0.00 in0.0 mm 0.00 in0.0 mm
08:23 PM 35.4°F1.9°C 25.0°F-3.9°C 71% 3.1 mph NE5.0 kmh NE 11.2 mph18.0 kmh 30.26 in1024.7 mb 0.00 in0.0 mm 0.00 in0.0 mm 0.00 in0.0 mm
08:42 PM 35.4°F1.9°C 25.0°F-3.9°C 71% 4.3 mph NE6.9 kmh NE 11.9 mph19.2 kmh 30.26 in1024.7 mb 0.00 in0.0 mm 0.00 in0.0 mm 0.00 in0.0 mm
09:02 PM 35.2°F1.8°C 24.8°F-4.0°C 71% 4.9 mph NE7.9 kmh NE 11.9 mph19.2 kmh 30.25 in1024.4 mb 0.00 in0.0 mm 0.00 in0.0 mm 0.00 in0.0 mm
09:22 PM 35.2°F1.8°C 24.8°F-4.0°C 71% 5.6 mph NE9.0 kmh NE 14.3 mph23.0 kmh 30.25 in1024.4 mb 0.00 in0.0 mm 0.00 in0.0 mm 0.00 in0.0 mm
09:42 PM 35.1°F1.7°C 24.6°F-4.1°C 71% 3.8 mph NE6.1 kmh NE 9.8 mph15.8 kmh 30.25 in1024.4 mb 0.00 in0.0 mm 0.00 in0.0 mm 0.00 in0.0 mm
10:02 PM 35.1°F1.7°C 24.6°F-4.1°C 71% 4.3 mph NE6.9 kmh NE 10.5 mph16.9 kmh 30.24 in1024.0 mb 0.00 in0.0 mm 0.00 in0.0 mm 0.00 in0.0 mm
10:22 PM 35.1°F1.7°C 24.6°F-4.1°C 71% 4.3 mph NE6.9 kmh NE 12.5 mph20.1 kmh 30.24 in1024.0 mb 0.00 in0.0 mm 0.00 in0.0 mm 0.00 in0.0 mm
10:43 PM 35.1°F1.7°C 24.6°F-4.1°C 71% 3.8 mph NE6.1 kmh NE 11.2 mph18.0 kmh 30.24 in1024.0 mb 0.00 in0.0 mm 0.00 in0.0 mm 0.00 in0.0 mm
11:03 PM 35.2°F1.8°C 24.8°F-4.0°C 71% 3.8 mph NE6.1 kmh NE 11.2 mph18.0 kmh 30.24 in1024.0 mb 0.00 in0.0 mm 0.00 in0.0 mm 0.00 in0.0 mm
11:23 PM 35.2°F1.8°C 24.8°F-4.0°C 71% 4.3 mph NE6.9 kmh NE 14.3 mph23.0 kmh 30.24 in1024.0 mb 0.00 in0.0 mm 0.00 in0.0 mm 0.00 in0.0 mm
11:48 PM 35.2°F1.8°C 24.8°F-4.0°C 71% 3.8 mph NE6.1 kmh NE 9.8 mph15.8 kmh 30.24 in1024.0 mb 0.00 in0.0 mm 0.00 in0.0 mm 0.00 in0.0 mm